Time;durP1;ratioP1;P1;durP2;ratioP2;P2;SDS_P1;SDS_P2;PMS_P1;PMS_P2;Temp;Humidity;BMP_temperature;BMP_pressure;BME280_temperature;BME280_humidity;BME280_pressure;Samples;Min_cycle;Max_cycle;Signal;HPM_P1;HPM_P2
2023/07/27 00:01:01;;;;;;;11.10;3.05;;;;;;;;;;5000802;28;20049;-73
2023/07/27 00:03:26;;;;;;;11.05;3.22;;;;;;;;;;5001157;28;20087;-72
2023/07/27 00:05:53;;;;;;;8.63;2.95;;;;;;;;;;4997562;28;20038;-72
2023/07/27 00:08:18;;;;;;;9.90;3.17;;;;;;;;;;4999016;28;20045;-74
2023/07/27 00:10:44;;;;;;;11.10;3.22;;;;;;;;;;5001253;28;20037;-72
2023/07/27 00:13:09;;;;;;;13.88;3.08;;;;;;;;;;5000306;28;20049;-73
2023/07/27 00:15:34;;;;;;;11.30;2.88;;;;;;;;;;4999083;28;20084;-73
2023/07/27 00:18:00;;;;;;;14.68;3.30;;;;;;;;;;5028294;28;20832;-73
2023/07/27 00:20:25;;;;;;;17.17;3.42;;;;;;;;;;5000643;28;20038;-72
2023/07/27 00:22:53;;;;;;;11.38;3.38;;;;;;;;;;4994847;28;20099;-73
2023/07/27 00:25:18;;;;;;;10.00;3.00;;;;;;;;;;5045762;28;20028;-72
2023/07/27 00:27:45;;;;;;;11.35;3.35;;;;;;;;;;5019204;28;20036;-74
2023/07/27 00:30:14;;;;;;;6.00;2.38;;;;;;;;;;5018983;28;20030;-75
2023/07/27 00:32:42;;;;;;;12.27;3.40;;;;;;;;;;5019500;28;20057;-72
2023/07/27 00:35:07;;;;;;;11.52;3.17;;;;;;;;;;5020142;28;20052;-72
2023/07/27 00:37:35;;;;;;;11.35;3.13;;;;;;;;;;5015475;28;20124;-72
2023/07/27 00:40:00;;;;;;;14.65;3.03;;;;;;;;;;5019557;28;20763;-73
2023/07/27 00:42:27;;;;;;;9.07;2.47;;;;;;;;;;5018352;28;20048;-73
2023/07/27 00:44:52;;;;;;;7.18;2.60;;;;;;;;;;5018482;28;20045;-72
2023/07/27 00:47:17;;;;;;;6.60;2.53;;;;;;;;;;5017618;28;20135;-69
2023/07/27 00:49:43;;;;;;;13.55;3.08;;;;;;;;;;5021202;28;20037;-72
2023/07/27 00:52:10;;;;;;;11.77;3.38;;;;;;;;;;4986716;28;20033;-71
2023/07/27 00:54:36;;;;;;;10.15;3.60;;;;;;;;;;5018969;28;20041;-72
2023/07/27 00:57:01;;;;;;;10.90;3.38;;;;;;;;;;5019186;28;20037;-71
2023/07/27 00:59:27;;;;;;;8.30;2.65;;;;;;;;;;5018496;28;20136;-70
2023/07/27 01:01:53;;;;;;;6.68;2.53;;;;;;;;;;5019632;28;20103;-71
2023/07/27 01:04:19;;;;;;;8.45;2.65;;;;;;;;;;5005466;28;20061;-69
2023/07/27 01:06:44;;;;;;;9.02;2.75;;;;;;;;;;4996579;28;20038;-68
2023/07/27 01:09:09;;;;;;;7.30;2.50;;;;;;;;;;5000701;28;20033;-69
2023/07/27 01:11:35;;;;;;;8.05;3.25;;;;;;;;;;5017469;28;20132;-70
2023/07/27 01:14:09;;;;;;;7.57;1.98;;;;;;;;;;5012468;28;20414;-69
2023/07/27 01:17:00;;;;;;;6.15;2.10;;;;;;;;;;5016595;28;20036;-70
2023/07/27 01:19:41;;;;;;;5.40;2.30;;;;;;;;;;5018210;28;20122;-70
2023/07/27 01:22:21;;;;;;;5.22;2.30;;;;;;;;;;5018358;28;20445;-70
2023/07/27 01:24:58;;;;;;;7.63;2.40;;;;;;;;;;5015847;28;20700;-70
2023/07/27 01:27:34;;;;;;;5.07;2.20;;;;;;;;;;5015594;28;22341;-70
2023/07/27 01:30:09;;;;;;;6.43;2.38;;;;;;;;;;5009889;28;20057;-71
2023/07/27 01:32:35;;;;;;;7.97;3.08;;;;;;;;;;5005968;28;20789;-71
2023/07/27 01:35:05;;;;;;;25.95;8.88;;;;;;;;;;5013177;28;20139;-71
2023/07/27 01:37:31;;;;;;;27.92;10.25;;;;;;;;;;5019138;28;20463;-71
2023/07/27 01:39:57;;;;;;;21.70;7.93;;;;;;;;;;5002741;28;20088;-72
2023/07/27 01:42:26;;;;;;;15.07;6.05;;;;;;;;;;5001349;28;20033;-74
2023/07/27 01:44:52;;;;;;;36.10;11.57;;;;;;;;;;4999801;28;20034;-76
2023/07/27 01:47:17;;;;;;;33.58;14.00;;;;;;;;;;5013460;28;20045;-76
2023/07/27 01:49:46;;;;;;;26.48;11.98;;;;;;;;;;4998088;28;20037;-76
2023/07/27 01:52:14;;;;;;;30.50;11.88;;;;;;;;;;5023261;28;20494;-76
2023/07/27 01:54:39;;;;;;;33.97;11.68;;;;;;;;;;5051984;28;20041;-76
2023/07/27 01:57:08;;;;;;;33.20;13.13;;;;;;;;;;5019754;28;20061;-77
2023/07/27 01:59:33;;;;;;;28.75;11.73;;;;;;;;;;5022965;28;20047;-79
2023/07/27 02:01:59;;;;;;;29.92;12.50;;;;;;;;;;5023237;28;20054;-78
2023/07/27 02:04:25;;;;;;;17.25;6.68;;;;;;;;;;5021388;28;20029;-78
2023/07/27 02:06:52;;;;;;;15.80;6.13;;;;;;;;;;5009579;28;20555;-79
2023/07/27 02:09:18;;;;;;;13.77;7.00;;;;;;;;;;5001503;28;20033;-82
2023/07/27 02:11:47;;;;;;;17.80;8.35;;;;;;;;;;5014655;28;20145;-79
2023/07/27 02:14:26;;;;;;;16.65;7.88;;;;;;;;;;4999858;28;20094;-80
2023/07/27 02:16:57;;;;;;;16.20;8.48;;;;;;;;;;5002270;28;20046;-79
2023/07/27 02:19:28;;;;;;;16.30;9.07;;;;;;;;;;5018094;28;20774;-79
2023/07/27 02:21:57;;;;;;;24.63;12.10;;;;;;;;;;5016543;28;20037;-80
2023/07/27 02:24:24;;;;;;;23.63;12.77;;;;;;;;;;5021880;28;20045;-77
2023/07/27 02:26:49;;;;;;;22.05;12.00;;;;;;;;;;5020185;28;20517;-77
2023/07/27 02:29:15;;;;;;;19.48;10.95;;;;;;;;;;5021540;28;20040;-76
2023/07/27 02:31:41;;;;;;;18.30;12.63;;;;;;;;;;5016640;28;20049;-77
2023/07/27 02:34:09;;;;;;;20.38;13.32;;;;;;;;;;5011520;28;20107;-78
2023/07/27 02:36:34;;;;;;;17.73;12.38;;;;;;;;;;5022513;28;20800;-78
2023/07/27 02:39:00;;;;;;;23.55;13.68;;;;;;;;;;5025215;28;20029;-76
2023/07/27 02:41:26;;;;;;;27.42;15.60;;;;;;;;;;5022279;28;20065;-76
2023/07/27 02:43:51;;;;;;;20.48;13.27;;;;;;;;;;5017610;28;20168;-77
2023/07/27 02:46:16;;;;;;;29.65;15.35;;;;;;;;;;5051424;28;20041;-77
2023/07/27 02:48:44;;;;;;;25.80;15.65;;;;;;;;;;5022705;28;20057;-77
2023/07/27 02:51:09;;;;;;;23.10;14.38;;;;;;;;;;5020809;28;20041;-76
2023/07/27 02:53:35;;;;;;;17.58;11.18;;;;;;;;;;5041584;28;20044;-75
2023/07/27 02:56:03;;;;;;;16.58;11.23;;;;;;;;;;5031623;28;20038;-76
2023/07/27 02:58:28;;;;;;;16.40;10.48;;;;;;;;;;5023782;28;20044;-76
2023/07/27 03:00:55;;;;;;;12.82;9.63;;;;;;;;;;5019946;28;21188;-76
2023/07/27 03:03:21;;;;;;;12.63;9.70;;;;;;;;;;5001344;28;20034;-75
2023/07/27 03:05:46;;;;;;;18.08;12.80;;;;;;;;;;5018535;28;20662;-75
2023/07/27 03:08:11;;;;;;;22.73;14.43;;;;;;;;;;5022128;28;20074;-75
2023/07/27 03:10:38;;;;;;;25.55;15.77;;;;;;;;;;5020855;28;20120;-76
2023/07/27 03:13:03;;;;;;;21.70;15.70;;;;;;;;;;5024422;28;20043;-76
2023/07/27 03:15:28;;;;;;;26.85;17.75;;;;;;;;;;5023967;28;20045;-76
2023/07/27 03:17:54;;;;;;;23.15;14.98;;;;;;;;;;5022735;28;20040;-73
2023/07/27 03:20:19;;;;;;;26.58;16.63;;;;;;;;;;5055187;28;20429;-76
2023/07/27 03:22:44;;;;;;;28.50;15.52;;;;;;;;;;5024537;28;20254;-76
2023/07/27 03:25:10;;;;;;;23.45;15.75;;;;;;;;;;5021938;28;20032;-75
2023/07/27 03:27:37;;;;;;;22.70;16.02;;;;;;;;;;5022627;28;20051;-74
2023/07/27 03:30:04;;;;;;;23.15;15.27;;;;;;;;;;5013530;28;20179;-77
2023/07/27 03:32:29;;;;;;;18.55;13.80;;;;;;;;;;5020391;28;20036;-77
2023/07/27 03:35:00;;;;;;;17.17;11.05;;;;;;;;;;5056080;28;20064;-76
2023/07/27 03:37:28;;;;;;;20.40;13.23;;;;;;;;;;5020584;28;20113;-76
2023/07/27 03:39:53;;;;;;;17.05;12.73;;;;;;;;;;5020246;28;20040;-74
2023/07/27 03:42:19;;;;;;;14.63;10.75;;;;;;;;;;5018172;28;20681;-74
2023/07/27 03:44:44;;;;;;;16.50;10.48;;;;;;;;;;5021977;28;20039;-75
2023/07/27 03:47:09;;;;;;;21.33;12.85;;;;;;;;;;5026037;28;20041;-76
2023/07/27 03:49:41;;;;;;;22.70;14.43;;;;;;;;;;5017478;28;20048;-75
2023/07/27 03:52:06;;;;;;;18.52;13.70;;;;;;;;;;5028909;28;20040;-76
2023/07/27 03:54:31;;;;;;;19.77;13.98;;;;;;;;;;5037260;28;20504;-76
2023/07/27 03:56:59;;;;;;;18.55;14.18;;;;;;;;;;5024438;28;20497;-75
2023/07/27 03:59:24;;;;;;;19.52;13.32;;;;;;;;;;5021142;28;20033;-76
2023/07/27 04:01:50;;;;;;;20.50;14.20;;;;;;;;;;5015493;28;20465;-74
2023/07/27 04:04:15;;;;;;;19.55;14.00;;;;;;;;;;5019867;28;20033;-77
2023/07/27 04:06:41;;;;;;;20.60;13.25;;;;;;;;;;5024746;28;20041;-75
2023/07/27 04:09:07;;;;;;;17.00;12.70;;;;;;;;;;5005445;28;20477;-75
2023/07/27 04:11:33;;;;;;;16.58;11.43;;;;;;;;;;5024874;28;20119;-75
2023/07/27 04:13:58;;;;;;;17.58;12.70;;;;;;;;;;5018066;28;20048;-74
2023/07/27 04:16:24;;;;;;;29.90;18.95;;;;;;;;;;5054095;28;20033;-77
2023/07/27 04:18:49;;;;;;;42.33;22.90;;;;;;;;;;5036534;28;21441;-75
2023/07/27 04:21:15;;;;;;;37.03;21.00;;;;;;;;;;5006376;28;20037;-75
2023/07/27 04:23:45;;;;;;;27.40;17.92;;;;;;;;;;5020296;28;20036;-75
2023/07/27 04:26:11;;;;;;;22.50;15.13;;;;;;;;;;5020401;28;20025;-75
2023/07/27 04:28:36;;;;;;;22.30;14.07;;;;;;;;;;5023107;28;20566;-73
2023/07/27 04:31:01;;;;;;;17.20;12.82;;;;;;;;;;5023028;28;20948;-74
2023/07/27 04:33:27;;;;;;;15.82;11.85;;;;;;;;;;5019304;28;20041;-74
2023/07/27 04:35:52;;;;;;;13.48;10.18;;;;;;;;;;5054035;28;20037;-74
2023/07/27 04:38:17;;;;;;;16.08;11.60;;;;;;;;;;5029757;28;20037;-74
2023/07/27 04:40:43;;;;;;;18.40;11.85;;;;;;;;;;5023322;28;20518;-73
2023/07/27 04:43:08;;;;;;;12.52;9.30;;;;;;;;;;5049123;28;20025;-75
2023/07/27 04:45:33;;;;;;;14.75;10.52;;;;;;;;;;5021234;28;20071;-75
2023/07/27 04:47:59;;;;;;;14.10;10.55;;;;;;;;;;5021818;28;20040;-73
2023/07/27 04:50:24;;;;;;;15.38;11.27;;;;;;;;;;5022219;28;20072;-76
2023/07/27 04:52:49;;;;;;;15.85;10.07;;;;;;;;;;5020189;28;20041;-75
2023/07/27 04:55:15;;;;;;;14.07;10.63;;;;;;;;;;5021747;28;20623;-75
2023/07/27 04:57:40;;;;;;;16.45;10.93;;;;;;;;;;5036710;28;20222;-74
2023/07/27 05:00:08;;;;;;;20.55;12.45;;;;;;;;;;5023848;28;20035;-74
2023/07/27 05:02:33;;;;;;;17.10;10.93;;;;;;;;;;5037116;28;20037;-76
2023/07/27 05:04:59;;;;;;;16.25;10.73;;;;;;;;;;5037217;28;20500;-77
2023/07/27 05:07:26;;;;;;;17.63;11.15;;;;;;;;;;5014482;28;20128;-75
2023/07/27 05:09:52;;;;;;;28.30;16.48;;;;;;;;;;5016545;28;20677;-75
2023/07/27 05:12:17;;;;;;;24.45;12.32;;;;;;;;;;5046585;28;20040;-73
2023/07/27 05:14:42;;;;;;;19.05;11.02;;;;;;;;;;5002604;28;20040;-74
2023/07/27 05:17:08;;;;;;;20.50;11.45;;;;;;;;;;5020540;28;20069;-72
2023/07/27 05:19:33;;;;;;;20.33;13.13;;;;;;;;;;5021299;28;20033;-73
2023/07/27 05:21:58;;;;;;;27.15;14.65;;;;;;;;;;5020375;28;20067;-74
2023/07/27 05:24:23;;;;;;;26.67;15.50;;;;;;;;;;5021082;28;20040;-74
2023/07/27 05:26:49;;;;;;;22.50;14.75;;;;;;;;;;5018303;28;20041;-75
2023/07/27 05:29:14;;;;;;;22.85;15.60;;;;;;;;;;5021439;28;20525;-76
2023/07/27 05:31:40;;;;;;;20.50;12.75;;;;;;;;;;5017755;28;20037;-76
2023/07/27 05:34:07;;;;;;;17.13;10.68;;;;;;;;;;5020115;28;20119;-75
2023/07/27 05:36:33;;;;;;;24.35;13.80;;;;;;;;;;5022355;28;20040;-77
2023/07/27 05:38:58;;;;;;;25.38;13.98;;;;;;;;;;5019978;28;20040;-76
2023/07/27 05:41:26;;;;;;;27.60;15.05;;;;;;;;;;5004464;28;20090;-76
2023/07/27 05:43:53;;;;;;;16.15;11.13;;;;;;;;;;5001635;28;20187;-76
2023/07/27 05:46:18;;;;;;;13.30;10.23;;;;;;;;;;5005305;28;20107;-76
2023/07/27 05:48:44;;;;;;;13.30;9.52;;;;;;;;;;4994404;28;20033;-77
2023/07/27 05:51:09;;;;;;;12.50;9.40;;;;;;;;;;5000581;28;20762;-77
2023/07/27 05:53:34;;;;;;;12.77;9.13;;;;;;;;;;5016383;28;20060;-76
2023/07/27 05:56:00;;;;;;;14.90;10.65;;;;;;;;;;5020915;28;20041;-76
2023/07/27 05:58:25;;;;;;;14.32;9.75;;;;;;;;;;5021588;28;20044;-75
2023/07/27 06:00:58;;;;;;;13.93;9.90;;;;;;;;;;5021340;28;20064;-76
2023/07/27 06:03:23;;;;;;;13.73;10.02;;;;;;;;;;5000470;28;20038;-77
2023/07/27 06:05:49;;;;;;;28.88;19.90;;;;;;;;;;5019169;28;20040;-77
2023/07/27 06:08:14;;;;;;;36.08;20.63;;;;;;;;;;5020558;28;20179;-76
2023/07/27 06:10:41;;;;;;;49.00;30.33;;;;;;;;;;5019945;28;20047;-77
2023/07/27 06:13:07;;;;;;;54.30;34.95;;;;;;;;;;5017581;28;20037;-77
2023/07/27 06:15:32;;;;;;;57.70;32.63;;;;;;;;;;5019630;28;20063;-76
2023/07/27 06:17:57;;;;;;;46.03;26.95;;;;;;;;;;5001505;28;20021;-76
2023/07/27 06:20:23;;;;;;;33.20;21.00;;;;;;;;;;5016416;28;20092;-75
2023/07/27 06:22:48;;;;;;;30.95;18.77;;;;;;;;;;5006683;28;20114;-78
2023/07/27 06:25:14;;;;;;;33.42;20.45;;;;;;;;;;5019435;28;20626;-76
2023/07/27 06:27:39;;;;;;;13.55;8.02;;;;;;;;;;5020504;28;20037;-77
2023/07/27 06:30:05;;;;;;;13.82;8.52;;;;;;;;;;5028966;28;20029;-76
2023/07/27 06:32:30;;;;;;;8.45;4.00;;;;;;;;;;5021038;28;20095;-76
2023/07/27 06:34:55;;;;;;;14.10;2.10;;;;;;;;;;5004877;28;23009;-76
2023/07/27 06:37:21;;;;;;;6.75;1.50;;;;;;;;;;5015949;28;20037;-75
2023/07/27 06:39:46;;;;;;;10.50;1.83;;;;;;;;;;5024272;28;20063;-76
2023/07/27 06:42:11;;;;;;;13.05;1.95;;;;;;;;;;5022215;28;20037;-77
2023/07/27 06:44:37;;;;;;;8.65;1.80;;;;;;;;;;5021218;28;20037;-76
2023/07/27 06:47:02;;;;;;;10.95;1.80;;;;;;;;;;5014631;28;20037;-78
2023/07/27 06:49:27;;;;;;;11.65;1.73;;;;;;;;;;5020324;28;20128;-77
2023/07/27 06:51:53;;;;;;;8.63;1.80;;;;;;;;;;5038253;28;20065;-75
2023/07/27 06:54:18;;;;;;;10.30;2.28;;;;;;;;;;5018838;28;20037;-76
2023/07/27 06:56:44;;;;;;;8.80;1.85;;;;;;;;;;5031177;28;20085;-77
2023/07/27 06:59:09;;;;;;;10.60;2.35;;;;;;;;;;5019271;28;20037;-77
2023/07/27 07:01:34;;;;;;;17.33;2.38;;;;;;;;;;5021751;28;20033;-76
2023/07/27 07:03:59;;;;;;;6.28;1.77;;;;;;;;;;5022496;28;20029;-76
2023/07/27 07:06:25;;;;;;;12.57;1.83;;;;;;;;;;5021797;28;20086;-77
2023/07/27 07:08:50;;;;;;;9.25;1.83;;;;;;;;;;5035010;28;20041;-75
2023/07/27 07:11:15;;;;;;;11.13;1.60;;;;;;;;;;5021167;28;20501;-75
2023/07/27 07:13:43;;;;;;;16.08;1.92;;;;;;;;;;5017415;28;20041;-75
2023/07/27 07:16:08;;;;;;;16.05;2.17;;;;;;;;;;5018265;28;20036;-78
2023/07/27 07:18:33;;;;;;;13.63;2.13;;;;;;;;;;5019574;28;20065;-77
2023/07/27 07:20:59;;;;;;;12.80;2.20;;;;;;;;;;5016537;28;20037;-76
2023/07/27 07:23:24;;;;;;;17.85;2.90;;;;;;;;;;5022294;28;20048;-72
2023/07/27 07:25:49;;;;;;;13.52;2.63;;;;;;;;;;5020665;28;20854;-78
2023/07/27 07:28:18;;;;;;;14.50;2.08;;;;;;;;;;5007159;28;20045;-75
2023/07/27 07:30:43;;;;;;;10.27;1.90;;;;;;;;;;5004581;28;20038;-74
2023/07/27 07:33:09;;;;;;;11.35;1.55;;;;;;;;;;5004642;28;20040;-77
2023/07/27 07:35:38;;;;;;;18.25;2.20;;;;;;;;;;5008476;28;20053;-76
2023/07/27 07:38:04;;;;;;;13.52;2.08;;;;;;;;;;4999353;28;20116;-77
2023/07/27 07:40:31;;;;;;;17.40;1.90;;;;;;;;;;5010885;28;20037;-76
2023/07/27 07:42:59;;;;;;;13.02;2.17;;;;;;;;;;5029185;28;20047;-76
2023/07/27 07:45:25;;;;;;;14.82;2.45;;;;;;;;;;5023399;28;20553;-76
2023/07/27 07:47:50;;;;;;;12.50;2.28;;;;;;;;;;5056187;28;20039;-75
2023/07/27 07:50:15;;;;;;;16.35;2.10;;;;;;;;;;5023570;28;20044;-76
2023/07/27 07:52:41;;;;;;;9.95;1.83;;;;;;;;;;5005545;28;20162;-76
2023/07/27 07:55:08;;;;;;;12.23;2.53;;;;;;;;;;5030808;28;20045;-75
2023/07/27 07:57:36;;;;;;;18.58;3.00;;;;;;;;;;5034778;28;20045;-78
2023/07/27 08:00:05;;;;;;;8.55;2.22;;;;;;;;;;5023237;28;20753;-74
2023/07/27 08:02:33;;;;;;;10.82;1.90;;;;;;;;;;5015264;28;20033;-74
2023/07/27 08:04:59;;;;;;;12.30;2.28;;;;;;;;;;5051662;28;20056;-76
2023/07/27 08:07:28;;;;;;;11.68;2.00;;;;;;;;;;5024335;28;20033;-72
2023/07/27 08:09:54;;;;;;;15.45;2.15;;;;;;;;;;5023009;28;21057;-76
2023/07/27 08:12:19;;;;;;;11.68;2.05;;;;;;;;;;5022837;28;20087;-78
2023/07/27 08:14:44;;;;;;;10.75;2.20;;;;;;;;;;5014224;28;20041;-78
2023/07/27 08:17:10;;;;;;;17.55;2.28;;;;;;;;;;5009001;28;20214;-78
2023/07/27 08:19:35;;;;;;;12.73;2.22;;;;;;;;;;5041412;28;20037;-76
2023/07/27 08:22:01;;;;;;;14.38;2.80;;;;;;;;;;5023292;28;20126;-77
2023/07/27 08:24:26;;;;;;;11.18;2.50;;;;;;;;;;5036508;28;20037;-76
2023/07/27 08:26:51;;;;;;;16.05;2.45;;;;;;;;;;5020769;28;20395;-76
2023/07/27 08:29:16;;;;;;;13.73;3.13;;;;;;;;;;5022167;28;20044;-74
2023/07/27 08:31:42;;;;;;;16.88;2.80;;;;;;;;;;5022511;28;20595;-77
2023/07/27 08:34:07;;;;;;;12.77;2.50;;;;;;;;;;5019622;28;20040;-76
2023/07/27 08:36:32;;;;;;;20.35;2.80;;;;;;;;;;5039267;28;21871;-76
2023/07/27 08:38:58;;;;;;;29.77;3.17;;;;;;;;;;5048740;28;20048;-76
2023/07/27 08:41:24;;;;;;;28.85;4.97;;;;;;;;;;5018923;28;20044;-74
2023/07/27 08:43:51;;;;;;;27.45;4.07;;;;;;;;;;5021195;28;20052;-77
2023/07/27 08:46:17;;;;;;;18.45;3.30;;;;;;;;;;5019165;28;20044;-76
2023/07/27 08:48:43;;;;;;;22.45;2.92;;;;;;;;;;5018169;28;20036;-76
2023/07/27 08:51:11;;;;;;;16.35;3.03;;;;;;;;;;5020773;28;20037;-75
2023/07/27 08:53:36;;;;;;;25.42;3.72;;;;;;;;;;5017472;28;20142;-76
2023/07/27 08:56:02;;;;;;;26.20;3.65;;;;;;;;;;5018279;28;20134;-76
2023/07/27 08:58:28;;;;;;;21.73;3.70;;;;;;;;;;5009489;28;20036;-75
2023/07/27 09:00:53;;;;;;;21.73;3.25;;;;;;;;;;4999071;28;20135;-76
2023/07/27 09:03:19;;;;;;;24.42;3.75;;;;;;;;;;5033190;28;20049;-76
2023/07/27 09:05:45;;;;;;;20.13;3.35;;;;;;;;;;5002612;28;20037;-76
2023/07/27 09:08:15;;;;;;;21.38;3.55;;;;;;;;;;5001167;28;20034;-77
2023/07/27 09:10:42;;;;;;;26.83;3.25;;;;;;;;;;5002615;28;20044;-77
2023/07/27 09:13:08;;;;;;;13.98;2.88;;;;;;;;;;5025873;28;20137;-78
2023/07/27 09:15:34;;;;;;;22.60;3.60;;;;;;;;;;5017633;28;20049;-77
2023/07/27 09:18:01;;;;;;;25.88;3.97;;;;;;;;;;4995641;28;20123;-76
2023/07/27 09:20:27;;;;;;;23.77;3.35;;;;;;;;;;5021149;28;20194;-73
2023/07/27 09:22:54;;;;;;;22.25;3.25;;;;;;;;;;5020287;28;21049;-75
2023/07/27 09:25:23;;;;;;;24.58;3.15;;;;;;;;;;5018803;28;20044;-74
2023/07/27 09:27:51;;;;;;;20.73;2.95;;;;;;;;;;5023312;28;20043;-73
2023/07/27 09:30:17;;;;;;;16.85;3.00;;;;;;;;;;5040316;28;20115;-72
2023/07/27 09:32:42;;;;;;;15.60;3.03;;;;;;;;;;5022951;28;20037;-75
2023/07/27 09:35:12;;;;;;;19.50;2.78;;;;;;;;;;5052732;28;20634;-77
2023/07/27 09:37:38;;;;;;;16.65;3.17;;;;;;;;;;5020783;28;20905;-76
2023/07/27 09:40:23;;;;;;;17.52;2.75;;;;;;;;;;5022074;28;20040;-77
2023/07/27 09:42:48;;;;;;;14.90;2.55;;;;;;;;;;5019407;28;20498;-79
2023/07/27 09:45:16;;;;;;;16.38;2.20;;;;;;;;;;5022202;28;20059;-77
2023/07/27 09:47:41;;;;;;;12.02;2.15;;;;;;;;;;5017589;28;20045;-78
2023/07/27 09:50:08;;;;;;;15.50;2.40;;;;;;;;;;5019374;28;20048;-73
2023/07/27 09:52:34;;;;;;;15.32;2.90;;;;;;;;;;5020220;28;20115;-78
2023/07/27 09:55:02;;;;;;;13.05;2.60;;;;;;;;;;5022907;28;20079;-77
2023/07/27 09:57:27;;;;;;;15.10;2.80;;;;;;;;;;5019207;28;20041;-78
2023/07/27 09:59:53;;;;;;;16.88;2.95;;;;;;;;;;5017604;28;20056;-76
2023/07/27 10:02:20;;;;;;;17.50;3.05;;;;;;;;;;5019520;28;20029;-76
2023/07/27 10:04:46;;;;;;;15.18;3.42;;;;;;;;;;5010757;28;22238;-74
2023/07/27 10:07:12;;;;;;;15.45;3.53;;;;;;;;;;5016930;28;20047;-76
2023/07/27 10:09:38;;;;;;;15.20;3.88;;;;;;;;;;5000492;28;20037;-78
2023/07/27 10:12:04;;;;;;;18.70;3.83;;;;;;;;;;5016629;28;20033;-76
2023/07/27 10:14:30;;;;;;;26.50;4.13;;;;;;;;;;5013730;28;20576;-78
2023/07/27 10:16:58;;;;;;;22.85;3.97;;;;;;;;;;5017066;28;20036;-76
2023/07/27 10:19:24;;;;;;;21.83;3.88;;;;;;;;;;5017636;28;20167;-77
2023/07/27 10:21:51;;;;;;;16.23;4.00;;;;;;;;;;5016605;28;20037;-76
2023/07/27 10:24:20;;;;;;;17.90;3.90;;;;;;;;;;5017087;28;21238;-77
2023/07/27 10:26:46;;;;;;;15.05;3.10;;;;;;;;;;5017575;28;20158;-77
2023/07/27 10:29:13;;;;;;;17.90;3.25;;;;;;;;;;5019761;28;20091;-77
2023/07/27 10:31:41;;;;;;;15.23;2.78;;;;;;;;;;5035697;28;20167;-78
2023/07/27 10:34:06;;;;;;;17.33;3.42;;;;;;;;;;5017763;28;22208;-75
2023/07/27 10:36:52;;;;;;;16.67;3.75;;;;;;;;;;5018067;28;20065;-77
2023/07/27 10:39:22;;;;;;;15.63;3.30;;;;;;;;;;5019917;28;20041;-79
2023/07/27 10:41:59;;;;;;;15.25;3.30;;;;;;;;;;5020514;28;20114;-76
2023/07/27 10:44:27;;;;;;;14.00;3.13;;;;;;;;;;5015562;28;20588;-78
2023/07/27 10:46:57;;;;;;;10.30;3.30;;;;;;;;;;5020234;28;20037;-78
2023/07/27 10:49:22;;;;;;;19.38;3.22;;;;;;;;;;5016829;28;20037;-77
2023/07/27 10:51:48;;;;;;;17.75;3.10;;;;;;;;;;5015946;28;20044;-78
2023/07/27 10:54:14;;;;;;;16.88;2.90;;;;;;;;;;5017643;28;20048;-76
2023/07/27 10:56:40;;;;;;;11.85;2.53;;;;;;;;;;5050184;28;20048;-77
2023/07/27 10:59:10;;;;;;;16.33;3.15;;;;;;;;;;5015659;28;20103;-77
2023/07/27 11:01:35;;;;;;;17.33;3.40;;;;;;;;;;5019945;28;20057;-74
2023/07/27 11:04:03;;;;;;;15.45;3.35;;;;;;;;;;5020139;28;20114;-74
2023/07/27 11:06:31;;;;;;;13.15;3.45;;;;;;;;;;5021857;28;20033;-77
2023/07/27 11:08:57;;;;;;;15.73;3.85;;;;;;;;;;5019848;28;21227;-75
2023/07/27 11:11:27;;;;;;;14.60;3.47;;;;;;;;;;5021305;28;20060;-77
2023/07/27 11:13:52;;;;;;;10.95;2.88;;;;;;;;;;5019593;28;20041;-75
2023/07/27 11:16:18;;;;;;;16.67;3.17;;;;;;;;;;5037807;28;20047;-76
2023/07/27 11:18:43;;;;;;;14.80;3.45;;;;;;;;;;5020446;28;20041;-77
2023/07/27 11:21:09;;;;;;;12.93;3.28;;;;;;;;;;5020187;28;20063;-75
2023/07/27 11:23:45;;;;;;;11.95;3.55;;;;;;;;;;5022234;28;20065;-78
2023/07/27 11:26:11;;;;;;;10.23;4.10;;;;;;;;;;5016677;28;20033;-75
2023/07/27 11:28:37;;;;;;;16.30;3.67;;;;;;;;;;5038301;28;20044;-76
2023/07/27 11:31:04;;;;;;;23.42;4.65;;;;;;;;;;5023505;28;20041;-76
2023/07/27 11:33:36;;;;;;;19.60;3.92;;;;;;;;;;5051216;28;20045;-76
2023/07/27 11:36:02;;;;;;;16.70;3.92;;;;;;;;;;5018530;28;20037;-77
2023/07/27 11:38:27;;;;;;;15.13;4.25;;;;;;;;;;5018114;28;20779;-79
2023/07/27 11:40:54;;;;;;;9.43;4.38;;;;;;;;;;5023185;28;20860;-78
2023/07/27 11:43:19;;;;;;;8.73;3.90;;;;;;;;;;5022333;28;20033;-76
2023/07/27 11:45:45;;;;;;;21.92;4.72;;;;;;;;;;5022476;28;20036;-78
2023/07/27 11:48:10;;;;;;;13.55;3.60;;;;;;;;;;5021894;28;20175;-75
2023/07/27 11:50:38;;;;;;;12.70;3.35;;;;;;;;;;5052995;28;20144;-76
2023/07/27 11:53:07;;;;;;;14.38;3.67;;;;;;;;;;5051458;28;20067;-76
2023/07/27 11:55:36;;;;;;;15.88;3.90;;;;;;;;;;5003139;28;20041;-77
2023/07/27 11:58:07;;;;;;;13.32;4.00;;;;;;;;;;5020788;28;20817;-76
2023/07/27 12:00:39;;;;;;;14.70;4.63;;;;;;;;;;5022354;28;20973;-79
2023/07/27 12:03:04;;;;;;;17.27;4.82;;;;;;;;;;5016473;28;20046;-78
2023/07/27 12:05:30;;;;;;;28.02;6.30;;;;;;;;;;5021390;28;20038;-78
2023/07/27 12:07:56;;;;;;;12.25;3.78;;;;;;;;;;5001043;28;20038;-76
2023/07/27 12:10:22;;;;;;;13.77;4.00;;;;;;;;;;5003266;28;20033;-78
2023/07/27 12:12:54;;;;;;;18.27;4.43;;;;;;;;;;5001896;28;20047;-78
2023/07/27 12:15:23;;;;;;;15.85;4.53;;;;;;;;;;5000602;28;20136;-76
2023/07/27 12:17:52;;;;;;;18.17;3.63;;;;;;;;;;4999109;28;20088;-77
2023/07/27 12:20:19;;;;;;;21.08;4.30;;;;;;;;;;5030018;28;20035;-78
2023/07/27 12:22:47;;;;;;;15.93;4.50;;;;;;;;;;5002351;28;20032;-77
2023/07/27 12:25:12;;;;;;;14.55;3.60;;;;;;;;;;5017021;28;20447;-77
2023/07/27 12:27:38;;;;;;;17.77;4.80;;;;;;;;;;5017661;28;20041;-75
2023/07/27 12:30:03;;;;;;;19.02;4.80;;;;;;;;;;5032774;28;20048;-76
2023/07/27 12:32:28;;;;;;;13.32;4.10;;;;;;;;;;5047955;28;20293;-76
2023/07/27 12:34:54;;;;;;;18.10;4.55;;;;;;;;;;5051026;28;20485;-78
2023/07/27 12:37:19;;;;;;;14.30;4.72;;;;;;;;;;5017750;28;20292;-77
2023/07/27 12:39:48;;;;;;;18.50;4.88;;;;;;;;;;5019076;28;20044;-81
2023/07/27 12:42:14;;;;;;;18.52;4.78;;;;;;;;;;4999669;28;20296;-76
2023/07/27 12:44:39;;;;;;;14.63;4.88;;;;;;;;;;5012717;28;20461;-78
2023/07/27 12:47:05;;;;;;;11.02;4.00;;;;;;;;;;4995432;28;20498;-78
2023/07/27 12:49:30;;;;;;;18.98;4.95;;;;;;;;;;4999360;28;20044;-77
2023/07/27 12:51:55;;;;;;;22.13;5.13;;;;;;;;;;5030948;28;20479;-78
2023/07/27 12:54:21;;;;;;;16.67;5.72;;;;;;;;;;5000069;28;20096;-77
2023/07/27 12:56:46;;;;;;;18.48;5.70;;;;;;;;;;5011852;28;20222;-79
2023/07/27 12:59:11;;;;;;;14.23;4.30;;;;;;;;;;5019226;28;20033;-80
2023/07/27 13:01:37;;;;;;;13.65;3.95;;;;;;;;;;5051830;28;20033;-77
2023/07/27 13:04:03;;;;;;;14.48;3.85;;;;;;;;;;5008842;28;20042;-79
2023/07/27 13:06:28;;;;;;;16.75;4.20;;;;;;;;;;5051572;28;20053;-79
2023/07/27 13:08:56;;;;;;;13.65;4.22;;;;;;;;;;5008593;28;20044;-78
2023/07/27 13:11:24;;;;;;;14.80;4.15;;;;;;;;;;5004172;28;20100;-80
2023/07/27 13:13:49;;;;;;;12.45;3.80;;;;;;;;;;4999837;28;20029;-81
2023/07/27 13:16:14;;;;;;;15.57;3.00;;;;;;;;;;4995522;28;20085;-75
2023/07/27 13:18:39;;;;;;;14.70;3.40;;;;;;;;;;5016719;28;20029;-76
2023/07/27 13:21:05;;;;;;;13.02;2.40;;;;;;;;;;5021715;28;20159;-79
2023/07/27 13:23:30;;;;;;;14.23;2.83;;;;;;;;;;5019713;28;20036;-81
2023/07/27 13:25:55;;;;;;;13.60;2.72;;;;;;;;;;5021378;28;20036;-78
2023/07/27 13:28:21;;;;;;;14.45;2.25;;;;;;;;;;5023169;28;20083;-78
2023/07/27 13:30:46;;;;;;;12.27;2.42;;;;;;;;;;5038231;28;20048;-80
2023/07/27 13:33:14;;;;;;;12.73;2.22;;;;;;;;;;5024290;28;20160;-77
2023/07/27 13:35:39;;;;;;;13.13;2.40;;;;;;;;;;5000165;28;20041;-80
2023/07/27 13:38:04;;;;;;;8.98;1.92;;;;;;;;;;4997665;28;20045;-80
2023/07/27 13:40:30;;;;;;;9.68;2.38;;;;;;;;;;5008170;28;20036;-78
2023/07/27 13:42:55;;;;;;;12.43;2.50;;;;;;;;;;5019443;28;20115;-80
2023/07/27 13:45:23;;;;;;;11.63;2.60;;;;;;;;;;5021952;28;20044;-79
2023/07/27 13:47:48;;;;;;;12.32;2.25;;;;;;;;;;5019367;28;20232;-77
2023/07/27 13:50:13;;;;;;;11.27;3.03;;;;;;;;;;5023640;28;20029;-79
2023/07/27 13:52:43;;;;;;;9.98;3.13;;;;;;;;;;4999068;28;20096;-80
2023/07/27 13:55:11;;;;;;;11.38;3.35;;;;;;;;;;5000173;28;20577;-77
2023/07/27 13:57:37;;;;;;;12.23;4.07;;;;;;;;;;5010536;28;20038;-79
2023/07/27 14:00:07;;;;;;;12.88;4.00;;;;;;;;;;5030423;28;20037;-80
2023/07/27 14:02:33;;;;;;;15.50;4.60;;;;;;;;;;5001044;28;20600;-81
2023/07/27 14:04:58;;;;;;;14.63;4.03;;;;;;;;;;5013301;28;20041;-81
2023/07/27 14:07:24;;;;;;;20.77;4.60;;;;;;;;;;5018891;28;20037;-78
2023/07/27 14:09:50;;;;;;;18.48;4.15;;;;;;;;;;5019566;28;20497;-80
2023/07/27 14:12:15;;;;;;;13.30;3.83;;;;;;;;;;5052332;28;20033;-80
2023/07/27 14:14:40;;;;;;;19.10;4.53;;;;;;;;;;5021038;28;20099;-78
2023/07/27 14:17:06;;;;;;;13.93;3.45;;;;;;;;;;5017266;28;20033;-76
2023/07/27 14:19:31;;;;;;;17.45;4.22;;;;;;;;;;5001138;28;20156;-79
2023/07/27 14:21:57;;;;;;;22.60;4.13;;;;;;;;;;4994776;28;20038;-75
2023/07/27 14:24:22;;;;;;;18.45;3.97;;;;;;;;;;4996085;28;20026;-81